createdAt,value
2023-01-07T00:01:37.212Z,101035.84
2023-01-07T00:04:07.480Z,101033.13
2023-01-07T00:06:37.333Z,101032.31
2023-01-07T00:09:06.727Z,101027.94
2023-01-07T00:11:38.037Z,101027.88
2023-01-07T00:14:07.975Z,101017.56
2023-01-07T00:16:36.769Z,101020.16
2023-01-07T00:19:05.688Z,101007.19
2023-01-07T00:21:33.068Z,101011.53
2023-01-07T00:24:03.870Z,101012.38
2023-01-07T00:26:35.021Z,101019.34
2023-01-07T00:29:02.538Z,101015.97
2023-01-07T00:31:34.081Z,101014.31
2023-01-07T00:34:01.322Z,101013.47
2023-01-07T00:36:41.284Z,101028.22
2023-01-07T00:39:18.681Z,101032.53
2023-01-07T00:42:04.813Z,101022.97
2023-01-07T00:44:32.589Z,101018.56
2023-01-07T00:47:00.436Z,101013.25
2023-01-07T00:49:27.713Z,101009.72
2023-01-07T00:51:54.645Z,101020.88
2023-01-07T00:54:21.540Z,101026.94
2023-01-07T00:56:48.470Z,101025.16
2023-01-07T00:59:15.421Z,101021.63
2023-01-07T01:01:43.233Z,101023.28
2023-01-07T01:04:10.254Z,101025.06
2023-01-07T01:06:37.179Z,101025.06
2023-01-07T01:09:04.192Z,101026.81
2023-01-07T01:11:31.121Z,101024.22
2023-01-07T01:13:58.073Z,101017.22
2023-01-07T01:16:25.065Z,101016.34
2023-01-07T01:18:52.103Z,101025.84
2023-01-07T01:21:19.277Z,101030.97
2023-01-07T01:23:46.756Z,101031.78
2023-01-07T01:26:16.808Z,101029.16
2023-01-07T01:28:44.682Z,101028.31
2023-01-07T01:31:12.157Z,101023.19
2023-01-07T01:33:39.205Z,101025.84
2023-01-07T01:36:10.478Z,101036.31
2023-01-07T01:38:37.899Z,101031.19
2023-01-07T01:41:06.359Z,101033.84
2023-01-07T01:43:39.697Z,101028.66
2023-01-07T01:46:17.052Z,101025.19
2023-01-07T01:48:52.123Z,101013.09
2023-01-07T01:51:22.009Z,101001.00
2023-01-07T01:53:50.897Z,101008.84
2023-01-07T01:56:28.214Z,101009.78
2023-01-07T01:59:04.415Z,101002.00
2023-01-07T02:01:34.148Z,100997.66
2023-01-07T02:04:05.986Z,101020.06
2023-01-07T02:06:36.890Z,101006.19
2023-01-07T02:09:05.015Z,101008.72
2023-01-07T02:11:46.642Z,101006.91
2023-01-07T02:15:07.327Z,101007.63
2023-01-07T02:17:56.052Z,100995.53
2023-01-07T02:20:37.279Z,101011.16
2023-01-07T02:24:07.253Z,100999.06
2023-01-07T02:27:14.069Z,100994.81
2023-01-07T02:30:05.825Z,100995.81
2023-01-07T02:32:45.207Z,101000.28
2023-01-07T02:35:45.469Z,100986.69
2023-01-07T02:38:42.325Z,100968.75
2023-01-07T02:41:19.988Z,100971.34
2023-01-07T02:44:22.394Z,100976.53
2023-01-07T02:47:22.951Z,100967.81
2023-01-07T02:49:50.138Z,100969.50
2023-01-07T02:52:23.151Z,100977.19
2023-01-07T02:55:16.288Z,100972.75
2023-01-07T02:58:13.917Z,100983.91
2023-01-07T03:01:01.772Z,100978.66
2023-01-07T03:04:06.131Z,100985.56
2023-01-07T03:07:18.538Z,100977.78
2023-01-07T03:10:10.158Z,100978.66
2023-01-07T03:12:49.135Z,100970.91
2023-01-07T03:15:29.007Z,100971.81
2023-01-07T03:18:30.606Z,100966.63
2023-01-07T03:21:02.519Z,100970.97
2023-01-07T03:23:30.896Z,100976.16
2023-01-07T03:26:03.617Z,100978.81
2023-01-07T03:28:35.229Z,100972.84
2023-01-07T03:31:04.027Z,100972.06
2023-01-07T03:33:49.326Z,100973.84
2023-01-07T03:36:20.278Z,100970.47
2023-01-07T03:38:49.485Z,100970.53
2023-01-07T03:41:36.422Z,100971.47
2023-01-07T03:44:03.349Z,100974.16
2023-01-07T03:46:30.525Z,100975.97
2023-01-07T03:48:57.411Z,100961.34
2023-01-07T03:51:24.356Z,100961.50
2023-01-07T03:53:51.244Z,100969.44
2023-01-07T03:56:18.154Z,100952.22
2023-01-07T03:58:45.070Z,100946.28
2023-01-07T04:01:12.067Z,100936.84
2023-01-07T04:03:39.025Z,100932.56
2023-01-07T04:06:05.971Z,100927.28
2023-01-07T04:08:32.858Z,100927.19
2023-01-07T04:10:59.761Z,100921.88
2023-01-07T04:13:26.687Z,100918.25
2023-01-07T04:15:53.620Z,100927.56
2023-01-07T04:18:20.564Z,100926.50
2023-01-07T04:20:48.685Z,100928.06
2023-01-07T04:23:16.404Z,100922.66
2023-01-07T04:25:47.174Z,100914.72
2023-01-07T04:28:14.248Z,100915.47
2023-01-07T04:30:41.377Z,100912.81
2023-01-07T04:33:08.701Z,100913.53
2023-01-07T04:35:35.804Z,100917.78
2023-01-07T04:38:02.831Z,100923.06
2023-01-07T04:40:29.950Z,100914.63
2023-01-07T04:42:57.147Z,100918.25
2023-01-07T04:45:24.176Z,100912.34
2023-01-07T04:47:55.162Z,100912.50
2023-01-07T04:50:22.507Z,100913.50
2023-01-07T04:52:49.619Z,100909.31
2023-01-07T04:55:16.940Z,100917.31
2023-01-07T04:57:44.348Z,100911.50
2023-01-07T05:00:12.113Z,100906.47
2023-01-07T05:02:39.107Z,100910.19
2023-01-07T05:05:06.449Z,100917.28
2023-01-07T05:07:33.350Z,100918.31
2023-01-07T05:10:00.503Z,100912.38
2023-01-07T05:12:27.540Z,100913.31
2023-01-07T05:14:54.414Z,100910.88
2023-01-07T05:17:22.181Z,100904.94
2023-01-07T05:19:49.473Z,100908.44
2023-01-07T05:22:16.507Z,100902.44
2023-01-07T05:24:43.458Z,100907.66
2023-01-07T05:27:10.517Z,100912.06
2023-01-07T05:29:37.501Z,100902.66
2023-01-07T05:32:04.961Z,100898.44
2023-01-07T05:34:31.869Z,100907.16
2023-01-07T05:36:58.835Z,100896.03
2023-01-07T05:39:26.372Z,100898.75
2023-01-07T05:41:53.255Z,100897.03
2023-01-07T05:44:20.229Z,100885.84
2023-01-07T05:46:47.147Z,100883.28
2023-01-07T05:49:14.103Z,100891.19
2023-01-07T05:51:41.057Z,100891.28
2023-01-07T05:54:08.864Z,100883.56
2023-01-07T05:56:35.964Z,100889.72
2023-01-07T05:59:03.023Z,100888.94
2023-01-07T06:01:30.054Z,100892.50
2023-01-07T06:03:57.979Z,100892.53
2023-01-07T06:06:24.965Z,100889.97
2023-01-07T06:08:51.815Z,100893.50
2023-01-07T06:11:18.721Z,100887.47
2023-01-07T06:13:45.667Z,100892.72
2023-01-07T06:16:14.010Z,100895.31
2023-01-07T06:18:41.096Z,100890.06
2023-01-07T06:21:08.320Z,100897.03
2023-01-07T06:23:35.709Z,100896.16
2023-01-07T06:26:02.802Z,100897.03
2023-01-07T06:28:29.883Z,100903.94
2023-01-07T06:30:56.797Z,100905.75
2023-01-07T06:33:23.780Z,100895.34
2023-01-07T06:35:51.423Z,100904.88
2023-01-07T06:38:18.319Z,100897.91
2023-01-07T06:40:45.212Z,100904.81
2023-01-07T06:43:12.111Z,100909.97
2023-01-07T06:45:41.347Z,100906.53
2023-01-07T06:48:08.476Z,100900.41
2023-01-07T06:50:35.457Z,100898.63
2023-01-07T06:53:02.401Z,100888.19
2023-01-07T06:55:29.304Z,100889.94
2023-01-07T06:57:56.253Z,100895.06
2023-01-07T07:00:23.211Z,100901.94
2023-01-07T07:02:50.283Z,100894.13
2023-01-07T07:05:17.424Z,100905.44
2023-01-07T07:07:44.329Z,100897.69
2023-01-07T07:10:12.365Z,100907.22
2023-01-07T07:12:40.269Z,100896.81
2023-01-07T07:15:08.467Z,100902.94
2023-01-07T07:17:35.427Z,100903.81
2023-01-07T07:20:02.400Z,100903.88
2023-01-07T07:22:29.460Z,100900.38
2023-01-07T07:24:56.393Z,100908.25
2023-01-07T07:27:23.393Z,100912.66
2023-01-07T07:29:50.313Z,100913.56
2023-01-07T07:32:17.445Z,100911.09
2023-01-07T07:34:44.426Z,100907.69
2023-01-07T07:37:11.389Z,100914.59
2023-01-07T07:39:38.497Z,100906.84
2023-01-07T07:42:06.081Z,100916.41
2023-01-07T07:44:33.093Z,100916.50
2023-01-07T07:46:59.981Z,100918.28
2023-01-07T07:49:26.932Z,100921.81
2023-01-07T07:51:53.963Z,100914.94
2023-01-07T07:54:23.100Z,100921.09
2023-01-07T07:56:50.983Z,100915.06
2023-01-07T07:59:17.881Z,100916.81
2023-01-07T08:01:44.925Z,100921.19
2023-01-07T08:04:12.403Z,100920.34
2023-01-07T08:06:39.369Z,100922.97
2023-01-07T08:09:06.331Z,100918.66
2023-01-07T08:11:33.438Z,100918.75
2023-01-07T08:14:00.375Z,100919.63
2023-01-07T08:16:27.415Z,100907.50
2023-01-07T08:18:54.338Z,100908.41
2023-01-07T08:21:21.412Z,100900.69
2023-01-07T08:23:48.320Z,100907.69
2023-01-07T08:26:15.273Z,100905.97
2023-01-07T08:28:42.215Z,100903.47
2023-01-07T08:31:09.432Z,100909.56
2023-01-07T08:33:38.597Z,100898.41
2023-01-07T08:36:18.180Z,100901.03
2023-01-07T08:38:55.036Z,100902.00
2023-01-07T08:41:23.850Z,100909.94
2023-01-07T08:43:51.600Z,100901.47
2023-01-07T08:46:18.688Z,100893.56
2023-01-07T08:48:45.661Z,100904.09
2023-01-07T08:51:12.923Z,100902.00
2023-01-07T08:53:40.058Z,100903.94
2023-01-07T08:56:07.426Z,100900.47
2023-01-07T08:58:34.347Z,100898.59
2023-01-07T09:01:03.594Z,100895.84
2023-01-07T09:03:30.544Z,100897.44
2023-01-07T09:05:57.440Z,100897.34
2023-01-07T09:08:24.414Z,100891.19
2023-01-07T09:10:51.409Z,100891.16
2023-01-07T09:13:18.339Z,100894.56
2023-01-07T09:15:45.725Z,100904.03
2023-01-07T09:18:12.648Z,100902.25
2023-01-07T09:20:39.605Z,100894.44
2023-01-07T09:23:06.630Z,100895.28
2023-01-07T09:25:33.549Z,100895.25
2023-01-07T09:28:00.521Z,100896.13
2023-01-07T09:30:27.566Z,100898.75
2023-01-07T09:32:54.519Z,100890.91
2023-01-07T09:35:21.792Z,100895.28
2023-01-07T09:37:48.719Z,100893.59
2023-01-07T09:40:40.236Z,100895.34
2023-01-07T09:43:59.886Z,100897.13
2023-01-07T09:46:30.959Z,100886.84
2023-01-07T09:49:03.012Z,100885.25
2023-01-07T09:51:40.590Z,100887.06
2023-01-07T09:54:29.923Z,100889.81
2023-01-07T09:56:56.869Z,100880.38
2023-01-07T09:59:23.856Z,100885.66
2023-01-07T10:01:50.667Z,100884.06
2023-01-07T10:04:42.957Z,100878.94
2023-01-07T10:07:53.946Z,100873.91
2023-01-07T10:11:21.607Z,100870.53
2023-01-07T10:13:51.355Z,100867.13
2023-01-07T10:17:05.265Z,100860.16
2023-01-07T10:20:22.940Z,100867.16
2023-01-07T10:23:04.388Z,100861.06
2023-01-07T10:25:47.286Z,100862.88
2023-01-07T10:28:30.321Z,100854.31
2023-01-07T10:30:59.356Z,100850.09
2023-01-07T10:33:33.424Z,100841.47
2023-01-07T10:36:32.492Z,100844.19
2023-01-07T10:39:12.624Z,100832.06
2023-01-07T10:42:23.353Z,100829.59
2023-01-07T10:45:11.887Z,100830.53
2023-01-07T10:47:53.045Z,100827.16
2023-01-07T10:50:49.324Z,100823.75
2023-01-07T10:53:33.674Z,100825.56
2023-01-07T10:56:24.834Z,100821.28
2023-01-07T10:58:51.763Z,100814.38
2023-01-07T11:01:40.321Z,100809.22
2023-01-07T11:04:15.125Z,100814.47
2023-01-07T11:06:53.504Z,100812.66
2023-01-07T11:09:28.050Z,100799.59
2023-01-07T11:11:58.593Z,100804.75
2023-01-07T11:14:30.961Z,100798.66
2023-01-07T11:17:13.908Z,100791.72
2023-01-07T11:19:49.462Z,100789.97
2023-01-07T11:22:30.847Z,100784.78
2023-01-07T11:25:00.655Z,100774.38
2023-01-07T11:27:32.411Z,100775.28
2023-01-07T11:30:26.267Z,100771.88
2023-01-07T11:33:03.095Z,100766.72
2023-01-07T11:35:30.680Z,100772.94
2023-01-07T11:37:59.701Z,100772.06
2023-01-07T11:40:32.515Z,100769.53
2023-01-07T11:43:21.476Z,100767.78
2023-01-07T11:46:20.443Z,100766.97
2023-01-07T11:49:00.875Z,100754.81
2023-01-07T11:51:40.335Z,100768.81
2023-01-07T11:54:25.135Z,100759.25
2023-01-07T11:56:54.171Z,100751.41
2023-01-07T11:59:29.732Z,100756.59
2023-01-07T12:02:02.001Z,100752.19
2023-01-07T12:04:34.038Z,100746.03
2023-01-07T12:07:24.892Z,100745.13
2023-01-07T12:09:51.820Z,100743.41
2023-01-07T12:12:31.781Z,100740.81
2023-01-07T12:15:17.021Z,100733.00
2023-01-07T12:17:47.983Z,100733.91
2023-01-07T12:20:39.961Z,100740.00
2023-01-07T12:23:25.261Z,100736.56
2023-01-07T12:26:06.721Z,100733.00
2023-01-07T12:28:48.364Z,100723.38
2023-01-07T12:31:52.704Z,100725.94
2023-01-07T12:34:58.131Z,100718.91
2023-01-07T12:37:58.924Z,100720.63
2023-01-07T12:40:41.846Z,100716.31
2023-01-07T12:43:28.775Z,100706.69
2023-01-07T12:46:07.879Z,100709.31
2023-01-07T12:49:15.950Z,100711.03
2023-01-07T12:51:46.328Z,100712.78
2023-01-07T12:54:39.339Z,100706.63
2023-01-07T12:57:23.047Z,100698.78
2023-01-07T12:59:59.076Z,100696.19
2023-01-07T13:02:48.647Z,100693.59
2023-01-07T13:05:25.255Z,100691.84
2023-01-07T13:08:04.186Z,100694.44
2023-01-07T13:10:42.408Z,100688.34
2023-01-07T13:13:28.061Z,100687.47
2023-01-07T13:15:55.094Z,100681.38
2023-01-07T13:18:22.063Z,100672.63
2023-01-07T13:21:08.203Z,100672.59
2023-01-07T13:24:01.135Z,100672.59
2023-01-07T13:27:09.605Z,100666.47
2023-01-07T13:30:00.034Z,100663.78
2023-01-07T13:32:45.542Z,100663.78
2023-01-07T13:35:56.674Z,100656.75
2023-01-07T13:39:14.871Z,100655.84
2023-01-07T13:42:15.311Z,100656.69
2023-01-07T13:45:08.863Z,100651.38
2023-01-07T13:47:50.578Z,100648.75
2023-01-07T13:50:23.507Z,100653.06
2023-01-07T13:53:04.459Z,100642.53
2023-01-07T13:55:41.749Z,100637.28
2023-01-07T13:58:30.500Z,100638.13
2023-01-07T14:01:07.701Z,100630.22
2023-01-07T14:03:43.090Z,100634.53
2023-01-07T14:06:19.068Z,100637.03
2023-01-07T14:09:11.049Z,100623.84
2023-01-07T14:11:42.051Z,100628.97
2023-01-07T14:14:39.591Z,100632.34
2023-01-07T14:17:27.181Z,100627.03
2023-01-07T14:20:11.299Z,100630.47
2023-01-07T14:23:11.302Z,100623.44
2023-01-07T14:26:21.829Z,100619.03
2023-01-07T14:29:45.635Z,100619.81
2023-01-07T14:32:31.556Z,100617.13
2023-01-07T14:35:29.961Z,100616.22
2023-01-07T14:37:56.861Z,100614.41
2023-01-07T14:40:26.414Z,100608.22
2023-01-07T14:42:54.811Z,100602.97
2023-01-07T14:45:36.943Z,100606.34
2023-01-07T14:48:10.081Z,100605.44
2023-01-07T14:51:05.928Z,100606.28
2023-01-07T14:54:18.710Z,100606.22
2023-01-07T14:57:02.186Z,100601.78
2023-01-07T15:00:15.998Z,100602.56
2023-01-07T15:03:10.212Z,100595.56
2023-01-07T15:06:14.261Z,100597.22
2023-01-07T15:09:26.851Z,100593.69
2023-01-07T15:12:19.417Z,100598.81
2023-01-07T15:15:30.193Z,100611.75
2023-01-07T15:17:58.102Z,100611.72
2023-01-07T15:20:39.791Z,100605.56
2023-01-07T15:23:50.496Z,100606.44
2023-01-07T15:26:35.666Z,100605.66
2023-01-07T15:29:48.564Z,100603.97
2023-01-07T15:32:43.891Z,100605.81
2023-01-07T15:35:38.576Z,100598.94
2023-01-07T15:38:20.752Z,100600.75
2023-01-07T15:40:47.871Z,100598.19
2023-01-07T15:43:25.487Z,100594.75
2023-01-07T15:46:05.012Z,100596.47
2023-01-07T15:48:32.368Z,100599.84
2023-01-07T15:51:02.252Z,100600.63
2023-01-07T15:53:30.432Z,100590.13
2023-01-07T15:56:11.094Z,100601.28
2023-01-07T15:58:48.778Z,100597.75
2023-01-07T16:01:25.739Z,100594.25
2023-01-07T16:03:56.838Z,100591.66
2023-01-07T16:06:33.958Z,100595.22
2023-01-07T16:09:18.817Z,100593.53
2023-01-07T16:11:45.907Z,100589.28
2023-01-07T16:14:25.635Z,100590.22
2023-01-07T16:17:15.412Z,100592.94
2023-01-07T16:19:42.985Z,100590.44
2023-01-07T16:22:16.385Z,100582.66
2023-01-07T16:24:56.707Z,100578.34
2023-01-07T16:27:29.626Z,100579.31
2023-01-07T16:29:58.934Z,100574.09
2023-01-07T16:32:26.628Z,100568.94
2023-01-07T16:34:59.870Z,100575.06
2023-01-07T16:37:28.549Z,100573.34
2023-01-07T16:39:56.015Z,100567.31
2023-01-07T16:42:23.639Z,100557.75
2023-01-07T16:44:53.594Z,100562.13
2023-01-07T16:47:33.437Z,100562.16
2023-01-07T16:50:20.572Z,100554.31
2023-01-07T16:52:56.211Z,100556.06
2023-01-07T16:55:50.016Z,100559.53
2023-01-07T16:58:52.815Z,100558.66
2023-01-07T17:01:33.773Z,100558.69
2023-01-07T17:04:08.437Z,100558.69
2023-01-07T17:06:41.634Z,100546.56
2023-01-07T17:09:37.145Z,100539.59
2023-01-07T17:12:05.079Z,100528.28
2023-01-07T17:14:35.669Z,100529.19
2023-01-07T17:17:26.366Z,100523.09
2023-01-07T17:20:12.154Z,100516.13
2023-01-07T17:22:39.840Z,100516.19
2023-01-07T17:25:15.953Z,100511.84
2023-01-07T17:28:00.357Z,100509.25
2023-01-07T17:30:36.284Z,100508.41
2023-01-07T17:33:03.903Z,100501.44
2023-01-07T17:35:30.830Z,100504.06
2023-01-07T17:37:57.776Z,100507.53
2023-01-07T17:40:24.800Z,100506.66
2023-01-07T17:43:10.137Z,100504.06
2023-01-07T17:45:37.187Z,100504.94
2023-01-07T17:48:14.097Z,100497.13
2023-01-07T17:50:41.932Z,100504.97
2023-01-07T17:53:23.000Z,100496.25
2023-01-07T17:55:49.944Z,100495.34
2023-01-07T17:58:33.329Z,100489.28
2023-01-07T18:01:05.010Z,100498.84
2023-01-07T18:03:32.441Z,100497.09
2023-01-07T18:05:59.390Z,100491.88
2023-01-07T18:08:26.403Z,100493.59
2023-01-07T18:11:14.311Z,100490.13
2023-01-07T18:13:42.283Z,100486.59
2023-01-07T18:16:13.608Z,100482.22
2023-01-07T18:18:40.664Z,100474.38
2023-01-07T18:21:09.033Z,100476.13
2023-01-07T18:23:36.063Z,100470.88
2023-01-07T18:26:05.848Z,100470.88
2023-01-07T18:28:32.990Z,100464.75
2023-01-07T18:30:59.900Z,100464.75
2023-01-07T18:33:26.959Z,100456.94
2023-01-07T18:35:53.938Z,100456.91
2023-01-07T18:38:20.995Z,100460.38
2023-01-07T18:40:47.961Z,100451.66
2023-01-07T18:43:17.459Z,100449.84
2023-01-07T18:45:46.425Z,100448.91
2023-01-07T18:48:15.888Z,100454.94
2023-01-07T18:50:45.037Z,100447.94
2023-01-07T18:53:12.412Z,100454.88
2023-01-07T18:55:41.885Z,100456.59
2023-01-07T18:58:12.505Z,100440.06
2023-01-07T19:00:39.983Z,100434.84
2023-01-07T19:03:06.997Z,100428.75
2023-01-07T19:05:33.941Z,100426.16
2023-01-07T19:08:00.844Z,100422.69
2023-01-07T19:10:28.142Z,100415.75
2023-01-07T19:12:55.227Z,100418.34
2023-01-07T19:15:22.206Z,100414.84
2023-01-07T19:17:49.111Z,100405.31
2023-01-07T19:20:16.501Z,100410.53
2023-01-07T19:22:43.370Z,100413.16
2023-01-07T19:25:10.584Z,100407.94
2023-01-07T19:27:37.603Z,100405.34
2023-01-07T19:30:05.745Z,100393.19
2023-01-07T19:32:32.747Z,100390.56
2023-01-07T19:34:59.677Z,100389.69
2023-01-07T19:37:28.047Z,100381.00
2023-01-07T19:39:54.947Z,100389.69
2023-01-07T19:42:21.931Z,100383.59
2023-01-07T19:44:49.237Z,100374.03
2023-01-07T19:47:17.225Z,100376.66
2023-01-07T19:49:45.344Z,100372.31
2023-01-07T19:52:13.595Z,100366.22
2023-01-07T19:54:41.765Z,100361.00
2023-01-07T19:57:08.980Z,100363.59
2023-01-07T19:59:36.290Z,100368.78
2023-01-07T20:02:04.080Z,100366.16
2023-01-07T20:04:31.166Z,100373.13
2023-01-07T20:06:58.155Z,100363.53
2023-01-07T20:09:25.125Z,100355.72
2023-01-07T20:11:52.133Z,100352.25
2023-01-07T20:14:19.259Z,100354.88
2023-01-07T20:16:46.318Z,100349.63
2023-01-07T20:19:13.683Z,100346.13
2023-01-07T20:21:40.765Z,100341.78
2023-01-07T20:24:08.255Z,100343.50
2023-01-07T20:26:38.192Z,100336.56
2023-01-07T20:29:05.412Z,100343.50
2023-01-07T20:31:32.624Z,100335.66
2023-01-07T20:34:00.357Z,100335.66
2023-01-07T20:36:31.046Z,100338.28
2023-01-07T20:38:58.281Z,100327.84
2023-01-07T20:41:27.606Z,100333.91
2023-01-07T20:43:57.859Z,100340.81
2023-01-07T20:46:26.557Z,100326.03
2023-01-07T20:48:53.737Z,100324.31
2023-01-07T20:51:21.316Z,100321.72
2023-01-07T20:53:48.691Z,100316.47
2023-01-07T20:56:22.264Z,100314.72
2023-01-07T20:58:50.275Z,100316.44
2023-01-07T21:01:21.080Z,100308.63
2023-01-07T21:03:48.238Z,100306.88
2023-01-07T21:06:18.965Z,100312.09
2023-01-07T21:08:48.040Z,100303.38
2023-01-07T21:11:18.981Z,100301.63
2023-01-07T21:13:47.109Z,100300.75
2023-01-07T21:16:14.518Z,100287.69
2023-01-07T21:18:41.915Z,100280.75
2023-01-07T21:21:21.178Z,100283.34
2023-01-07T21:23:48.732Z,100272.94
2023-01-07T21:26:17.189Z,100266.88
2023-01-07T21:28:44.789Z,100266.84
2023-01-07T21:31:15.813Z,100271.19
2023-01-07T21:33:44.030Z,100257.31
2023-01-07T21:36:14.885Z,100264.25
2023-01-07T21:38:42.224Z,100252.97
2023-01-07T21:41:15.501Z,100251.22
2023-01-07T21:43:43.245Z,100247.78
2023-01-07T21:46:11.159Z,100251.28
2023-01-07T21:48:41.339Z,100254.75
2023-01-07T21:51:16.583Z,100254.75
2023-01-07T21:53:43.486Z,100252.16
2023-01-07T21:56:15.569Z,100248.72
2023-01-07T21:58:44.254Z,100253.06
2023-01-07T22:01:12.280Z,100247.88
2023-01-07T22:03:39.717Z,100245.28
2023-01-07T22:06:19.954Z,100243.50
2023-01-07T22:08:47.763Z,100245.22
2023-01-07T22:11:18.471Z,100243.50
2023-01-07T22:13:50.877Z,100241.72
2023-01-07T22:16:19.133Z,100240.00
2023-01-07T22:18:46.938Z,100237.38
2023-01-07T22:21:14.763Z,100223.44
2023-01-07T22:23:45.794Z,100230.34
2023-01-07T22:26:15.588Z,100231.22
2023-01-07T22:28:48.996Z,100225.97
2023-01-07T22:31:25.692Z,100223.38
2023-01-07T22:33:53.402Z,100219.91
2023-01-07T22:36:37.882Z,100209.44
2023-01-07T22:39:11.052Z,100205.97
2023-01-07T22:41:38.344Z,100201.63
2023-01-07T22:44:15.210Z,100204.22
2023-01-07T22:46:45.657Z,100203.34
2023-01-07T22:49:13.614Z,100208.53
2023-01-07T22:51:46.553Z,100205.03
2023-01-07T22:54:14.993Z,100205.03
2023-01-07T22:56:43.850Z,100206.75
2023-01-07T22:59:10.713Z,100197.16
2023-01-07T23:01:39.865Z,100191.84
2023-01-07T23:04:06.951Z,100190.84
2023-01-07T23:06:34.051Z,100196.00
2023-01-07T23:09:00.956Z,100193.34
2023-01-07T23:11:46.418Z,100201.09
2023-01-07T23:14:13.956Z,100190.69
2023-01-07T23:16:41.250Z,100191.56
2023-01-07T23:19:08.193Z,100190.66
2023-01-07T23:21:37.556Z,100193.22
2023-01-07T23:24:04.570Z,100181.00
2023-01-07T23:26:31.510Z,100181.81
2023-01-07T23:28:58.377Z,100175.69
2023-01-07T23:31:25.462Z,100179.94
2023-01-07T23:33:52.386Z,100172.06
2023-01-07T23:36:19.287Z,100172.97
2023-01-07T23:38:46.195Z,100169.47
2023-01-07T23:41:13.577Z,100165.97
2023-01-07T23:43:40.856Z,100158.16
2023-01-07T23:46:08.765Z,100150.34
2023-01-07T23:48:37.781Z,100144.22
2023-01-07T23:51:11.867Z,100147.59
2023-01-07T23:53:38.987Z,100150.97
2023-01-07T23:56:07.187Z,100141.38
2023-01-07T23:58:35.287Z,100142.22
